sensor_id;sensor_type;location;lat;lon;timestamp;P1;durP1;ratioP1;P2;durP2;ratioP2
52946;SDS011;45776;40.400;17.260;2023-02-04T00:01:19;10.48;;;5.13;;
52946;SDS011;45776;40.400;17.260;2023-02-04T00:03:45;8.50;;;3.90;;
52946;SDS011;45776;40.400;17.260;2023-02-04T00:06:10;5.97;;;3.17;;
52946;SDS011;45776;40.400;17.260;2023-02-04T00:08:36;5.65;;;2.97;;
52946;SDS011;45776;40.400;17.260;2023-02-04T00:11:01;5.47;;;2.80;;
52946;SDS011;45776;40.400;17.260;2023-02-04T00:13:27;11.38;;;6.22;;
52946;SDS011;45776;40.400;17.260;2023-02-04T00:15:53;10.05;;;4.03;;
52946;SDS011;45776;40.400;17.260;2023-02-04T00:18:18;6.60;;;2.60;;
52946;SDS011;45776;40.400;17.260;2023-02-04T00:20:44;7.18;;;2.60;;
52946;SDS011;45776;40.400;17.260;2023-02-04T00:23:09;4.82;;;2.80;;
52946;SDS011;45776;40.400;17.260;2023-02-04T00:25:35;6.85;;;3.10;;
52946;SDS011;45776;40.400;17.260;2023-02-04T00:28:00;8.98;;;2.80;;
52946;SDS011;45776;40.400;17.260;2023-02-04T00:30:26;5.55;;;2.70;;
52946;SDS011;45776;40.400;17.260;2023-02-04T00:32:51;12.35;;;5.95;;
52946;SDS011;45776;40.400;17.260;2023-02-04T00:35:19;14.85;;;7.45;;
52946;SDS011;45776;40.400;17.260;2023-02-04T00:37:45;6.85;;;3.97;;
52946;SDS011;45776;40.400;17.260;2023-02-04T00:40:10;6.57;;;3.00;;
52946;SDS011;45776;40.400;17.260;2023-02-04T00:42:36;4.07;;;2.90;;
52946;SDS011;45776;40.400;17.260;2023-02-04T00:45:02;7.25;;;2.78;;
52946;SDS011;45776;40.400;17.260;2023-02-04T00:47:27;8.88;;;5.63;;
52946;SDS011;45776;40.400;17.260;2023-02-04T00:49:53;8.45;;;4.45;;
52946;SDS011;45776;40.400;17.260;2023-02-04T00:52:18;13.65;;;4.78;;
52946;SDS011;45776;40.400;17.260;2023-02-04T00:54:44;7.47;;;3.63;;
52946;SDS011;45776;40.400;17.260;2023-02-04T00:57:09;13.60;;;6.57;;
52946;SDS011;45776;40.400;17.260;2023-02-04T00:59:35;12.23;;;5.18;;
52946;SDS011;45776;40.400;17.260;2023-02-04T01:02:00;10.68;;;5.10;;
52946;SDS011;45776;40.400;17.260;2023-02-04T01:04:26;8.00;;;3.88;;
52946;SDS011;45776;40.400;17.260;2023-02-04T01:06:52;14.55;;;4.45;;
52946;SDS011;45776;40.400;17.260;2023-02-04T01:09:17;7.85;;;4.40;;
52946;SDS011;45776;40.400;17.260;2023-02-04T01:11:43;7.60;;;4.15;;
52946;SDS011;45776;40.400;17.260;2023-02-04T01:14:08;9.07;;;4.32;;
52946;SDS011;45776;40.400;17.260;2023-02-04T01:16:34;11.05;;;4.30;;
52946;SDS011;45776;40.400;17.260;2023-02-04T01:18:59;8.95;;;4.63;;
52946;SDS011;45776;40.400;17.260;2023-02-04T01:21:25;8.25;;;4.57;;
52946;SDS011;45776;40.400;17.260;2023-02-04T01:23:50;9.13;;;4.05;;
52946;SDS011;45776;40.400;17.260;2023-02-04T01:26:19;7.88;;;4.43;;
52946;SDS011;45776;40.400;17.260;2023-02-04T01:28:45;10.77;;;4.40;;
52946;SDS011;45776;40.400;17.260;2023-02-04T01:31:11;8.57;;;4.68;;
52946;SDS011;45776;40.400;17.260;2023-02-04T01:33:37;9.45;;;4.65;;
52946;SDS011;45776;40.400;17.260;2023-02-04T01:36:02;10.95;;;5.20;;
52946;SDS011;45776;40.400;17.260;2023-02-04T01:38:28;12.50;;;4.95;;
52946;SDS011;45776;40.400;17.260;2023-02-04T01:40:54;10.73;;;4.30;;
52946;SDS011;45776;40.400;17.260;2023-02-04T01:43:20;9.60;;;4.18;;
52946;SDS011;45776;40.400;17.260;2023-02-04T01:45:46;9.48;;;4.50;;
52946;SDS011;45776;40.400;17.260;2023-02-04T01:48:13;7.38;;;4.70;;
52946;SDS011;45776;40.400;17.260;2023-02-04T01:50:48;11.37;;;4.97;;
52946;SDS011;45776;40.400;17.260;2023-02-04T01:53:17;10.43;;;4.68;;
52946;SDS011;45776;40.400;17.260;2023-02-04T01:55:45;9.95;;;4.80;;
52946;SDS011;45776;40.400;17.260;2023-02-04T01:58:11;8.50;;;4.30;;
52946;SDS011;45776;40.400;17.260;2023-02-04T02:00:38;10.52;;;5.03;;
52946;SDS011;45776;40.400;17.260;2023-02-04T02:03:04;8.68;;;4.40;;
52946;SDS011;45776;40.400;17.260;2023-02-04T02:05:38;9.32;;;4.75;;
52946;SDS011;45776;40.400;17.260;2023-02-04T02:08:07;9.15;;;4.50;;
52946;SDS011;45776;40.400;17.260;2023-02-04T02:10:34;10.95;;;5.45;;
52946;SDS011;45776;40.400;17.260;2023-02-04T02:13:02;8.75;;;4.97;;
52946;SDS011;45776;40.400;17.260;2023-02-04T02:15:28;10.70;;;5.53;;
52946;SDS011;45776;40.400;17.260;2023-02-04T02:17:53;12.98;;;5.50;;
52946;SDS011;45776;40.400;17.260;2023-02-04T02:20:20;13.23;;;6.35;;
52946;SDS011;45776;40.400;17.260;2023-02-04T02:28:17;10.07;;;5.75;;
52946;SDS011;45776;40.400;17.260;2023-02-04T02:30:45;14.18;;;6.18;;
52946;SDS011;45776;40.400;17.260;2023-02-04T02:33:13;12.27;;;6.28;;
52946;SDS011;45776;40.400;17.260;2023-02-04T02:35:42;11.18;;;6.20;;
52946;SDS011;45776;40.400;17.260;2023-02-04T02:38:10;10.00;;;6.05;;
52946;SDS011;45776;40.400;17.260;2023-02-04T02:40:36;12.45;;;5.93;;
52946;SDS011;45776;40.400;17.260;2023-02-04T02:43:03;13.13;;;5.63;;
52946;SDS011;45776;40.400;17.260;2023-02-04T02:45:30;16.83;;;5.82;;
52946;SDS011;45776;40.400;17.260;2023-02-04T02:47:57;10.25;;;5.18;;
52946;SDS011;45776;40.400;17.260;2023-02-04T02:50:25;11.73;;;6.45;;
52946;SDS011;45776;40.400;17.260;2023-02-04T02:52:53;10.95;;;6.03;;
52946;SDS011;45776;40.400;17.260;2023-02-04T02:55:20;14.48;;;6.25;;
52946;SDS011;45776;40.400;17.260;2023-02-04T02:57:48;13.10;;;5.78;;
52946;SDS011;45776;40.400;17.260;2023-02-04T03:00:16;9.32;;;5.28;;
52946;SDS011;45776;40.400;17.260;2023-02-04T03:02:43;14.48;;;5.45;;
52946;SDS011;45776;40.400;17.260;2023-02-04T03:05:13;11.50;;;5.72;;
52946;SDS011;45776;40.400;17.260;2023-02-04T03:07:39;12.77;;;5.75;;
52946;SDS011;45776;40.400;17.260;2023-02-04T03:10:05;8.70;;;5.25;;
52946;SDS011;45776;40.400;17.260;2023-02-04T03:12:31;11.43;;;6.20;;
52946;SDS011;45776;40.400;17.260;2023-02-04T03:14:56;8.05;;;4.45;;
52946;SDS011;45776;40.400;17.260;2023-02-04T03:17:22;9.88;;;4.63;;
52946;SDS011;45776;40.400;17.260;2023-02-04T03:19:47;11.23;;;4.53;;
52946;SDS011;45776;40.400;17.260;2023-02-04T03:22:13;10.77;;;4.40;;
52946;SDS011;45776;40.400;17.260;2023-02-04T03:24:39;10.88;;;4.15;;
52946;SDS011;45776;40.400;17.260;2023-02-04T03:27:05;8.45;;;3.70;;
52946;SDS011;45776;40.400;17.260;2023-02-04T03:29:31;5.80;;;3.58;;
52946;SDS011;45776;40.400;17.260;2023-02-04T03:31:57;8.38;;;3.35;;
52946;SDS011;45776;40.400;17.260;2023-02-04T03:34:24;8.30;;;3.38;;
52946;SDS011;45776;40.400;17.260;2023-02-04T03:36:49;6.65;;;3.00;;
52946;SDS011;45776;40.400;17.260;2023-02-04T03:39:15;6.32;;;2.60;;
52946;SDS011;45776;40.400;17.260;2023-02-04T03:41:40;7.20;;;2.90;;
52946;SDS011;45776;40.400;17.260;2023-02-04T03:44:06;6.28;;;2.80;;
52946;SDS011;45776;40.400;17.260;2023-02-04T03:46:31;5.82;;;3.08;;
52946;SDS011;45776;40.400;17.260;2023-02-04T03:48:57;6.43;;;3.00;;
52946;SDS011;45776;40.400;17.260;2023-02-04T03:51:22;5.57;;;2.95;;
52946;SDS011;45776;40.400;17.260;2023-02-04T03:53:48;6.85;;;3.17;;
52946;SDS011;45776;40.400;17.260;2023-02-04T03:56:13;5.70;;;2.83;;
52946;SDS011;45776;40.400;17.260;2023-02-04T03:58:38;6.10;;;2.55;;
52946;SDS011;45776;40.400;17.260;2023-02-04T04:01:04;6.32;;;2.72;;
52946;SDS011;45776;40.400;17.260;2023-02-04T04:03:29;8.13;;;3.03;;
52946;SDS011;45776;40.400;17.260;2023-02-04T04:05:55;4.63;;;2.60;;
52946;SDS011;45776;40.400;17.260;2023-02-04T04:08:20;5.68;;;2.83;;
52946;SDS011;45776;40.400;17.260;2023-02-04T04:10:46;6.53;;;2.83;;
52946;SDS011;45776;40.400;17.260;2023-02-04T04:13:11;7.45;;;2.80;;
52946;SDS011;45776;40.400;17.260;2023-02-04T04:15:37;5.82;;;2.40;;
52946;SDS011;45776;40.400;17.260;2023-02-04T04:18:02;4.10;;;2.50;;
52946;SDS011;45776;40.400;17.260;2023-02-04T04:20:28;6.68;;;2.38;;
52946;SDS011;45776;40.400;17.260;2023-02-04T04:22:54;8.18;;;2.50;;
52946;SDS011;45776;40.400;17.260;2023-02-04T04:25:19;5.10;;;2.50;;
52946;SDS011;45776;40.400;17.260;2023-02-04T04:27:45;6.78;;;2.53;;
52946;SDS011;45776;40.400;17.260;2023-02-04T04:30:10;4.38;;;2.22;;
52946;SDS011;45776;40.400;17.260;2023-02-04T04:32:36;4.47;;;2.40;;
52946;SDS011;45776;40.400;17.260;2023-02-04T04:35:02;3.85;;;2.53;;
52946;SDS011;45776;40.400;17.260;2023-02-04T04:37:27;3.35;;;2.00;;
52946;SDS011;45776;40.400;17.260;2023-02-04T04:39:53;3.42;;;2.03;;
52946;SDS011;45776;40.400;17.260;2023-02-04T04:42:18;4.40;;;2.22;;
52946;SDS011;45776;40.400;17.260;2023-02-04T04:44:44;5.90;;;2.50;;
52946;SDS011;45776;40.400;17.260;2023-02-04T04:47:09;6.05;;;2.67;;
52946;SDS011;45776;40.400;17.260;2023-02-04T04:49:35;4.35;;;2.05;;
52946;SDS011;45776;40.400;17.260;2023-02-04T04:52:00;3.83;;;2.28;;
52946;SDS011;45776;40.400;17.260;2023-02-04T04:54:26;7.43;;;2.30;;
52946;SDS011;45776;40.400;17.260;2023-02-04T04:56:51;5.03;;;2.45;;
52946;SDS011;45776;40.400;17.260;2023-02-04T04:59:17;4.78;;;2.20;;
52946;SDS011;45776;40.400;17.260;2023-02-04T05:01:42;6.82;;;2.40;;
52946;SDS011;45776;40.400;17.260;2023-02-04T05:04:07;6.47;;;2.40;;
52946;SDS011;45776;40.400;17.260;2023-02-04T05:06:33;4.43;;;2.22;;
52946;SDS011;45776;40.400;17.260;2023-02-04T05:08:58;3.55;;;2.30;;
52946;SDS011;45776;40.400;17.260;2023-02-04T05:11:24;6.05;;;2.53;;
52946;SDS011;45776;40.400;17.260;2023-02-04T05:13:49;8.10;;;2.95;;
52946;SDS011;45776;40.400;17.260;2023-02-04T05:16:15;6.20;;;2.53;;
52946;SDS011;45776;40.400;17.260;2023-02-04T05:18:42;5.05;;;2.60;;
52946;SDS011;45776;40.400;17.260;2023-02-04T05:21:08;4.07;;;2.40;;
52946;SDS011;45776;40.400;17.260;2023-02-04T05:23:34;6.60;;;2.63;;
52946;SDS011;45776;40.400;17.260;2023-02-04T05:25:59;7.22;;;2.60;;
52946;SDS011;45776;40.400;17.260;2023-02-04T05:28:25;7.00;;;3.35;;
52946;SDS011;45776;40.400;17.260;2023-02-04T05:30:51;8.02;;;2.72;;
52946;SDS011;45776;40.400;17.260;2023-02-04T05:33:16;7.10;;;2.60;;
52946;SDS011;45776;40.400;17.260;2023-02-04T05:35:42;6.85;;;2.90;;
52946;SDS011;45776;40.400;17.260;2023-02-04T05:38:07;9.07;;;2.80;;
52946;SDS011;45776;40.400;17.260;2023-02-04T05:40:33;4.82;;;3.22;;
52946;SDS011;45776;40.400;17.260;2023-02-04T05:42:58;6.38;;;2.97;;
52946;SDS011;45776;40.400;17.260;2023-02-04T05:45:23;5.45;;;3.13;;
52946;SDS011;45776;40.400;17.260;2023-02-04T05:47:49;6.50;;;3.00;;
52946;SDS011;45776;40.400;17.260;2023-02-04T05:50:14;4.20;;;2.92;;
52946;SDS011;45776;40.400;17.260;2023-02-04T05:52:40;5.57;;;2.67;;
52946;SDS011;45776;40.400;17.260;2023-02-04T05:55:06;7.78;;;2.58;;
52946;SDS011;45776;40.400;17.260;2023-02-04T05:57:32;5.10;;;2.70;;
52946;SDS011;45776;40.400;17.260;2023-02-04T05:59:58;14.25;;;7.72;;
52946;SDS011;45776;40.400;17.260;2023-02-04T06:02:23;5.85;;;2.90;;
52946;SDS011;45776;40.400;17.260;2023-02-04T06:04:49;4.35;;;2.20;;
52946;SDS011;45776;40.400;17.260;2023-02-04T06:07:14;5.05;;;2.75;;
52946;SDS011;45776;40.400;17.260;2023-02-04T06:09:40;3.40;;;2.50;;
52946;SDS011;45776;40.400;17.260;2023-02-04T06:12:05;5.55;;;2.70;;
52946;SDS011;45776;40.400;17.260;2023-02-04T06:14:31;7.68;;;2.90;;
52946;SDS011;45776;40.400;17.260;2023-02-04T06:16:56;9.10;;;3.13;;
52946;SDS011;45776;40.400;17.260;2023-02-04T06:19:23;5.20;;;2.28;;
52946;SDS011;45776;40.400;17.260;2023-02-04T06:21:49;3.97;;;2.47;;
52946;SDS011;45776;40.400;17.260;2023-02-04T06:24:14;6.88;;;2.40;;
52946;SDS011;45776;40.400;17.260;2023-02-04T06:26:40;6.57;;;2.80;;
52946;SDS011;45776;40.400;17.260;2023-02-04T06:29:05;4.68;;;2.63;;
52946;SDS011;45776;40.400;17.260;2023-02-04T06:31:31;9.32;;;2.83;;
52946;SDS011;45776;40.400;17.260;2023-02-04T06:33:56;6.43;;;2.78;;
52946;SDS011;45776;40.400;17.260;2023-02-04T06:36:22;7.45;;;2.67;;
52946;SDS011;45776;40.400;17.260;2023-02-04T06:38:47;5.18;;;2.47;;
52946;SDS011;45776;40.400;17.260;2023-02-04T06:41:13;6.25;;;2.30;;
52946;SDS011;45776;40.400;17.260;2023-02-04T06:43:38;4.63;;;2.22;;
52946;SDS011;45776;40.400;17.260;2023-02-04T06:46:03;8.43;;;3.25;;
52946;SDS011;45776;40.400;17.260;2023-02-04T06:48:29;7.20;;;2.53;;
52946;SDS011;45776;40.400;17.260;2023-02-04T06:50:55;5.90;;;2.40;;
52946;SDS011;45776;40.400;17.260;2023-02-04T06:53:20;4.72;;;2.50;;
52946;SDS011;45776;40.400;17.260;2023-02-04T06:55:45;3.15;;;1.90;;
52946;SDS011;45776;40.400;17.260;2023-02-04T06:58:11;6.72;;;2.20;;
52946;SDS011;45776;40.400;17.260;2023-02-04T07:00:36;6.93;;;1.80;;
52946;SDS011;45776;40.400;17.260;2023-02-04T07:03:02;4.28;;;2.38;;
52946;SDS011;45776;40.400;17.260;2023-02-04T07:05:28;6.72;;;2.95;;
52946;SDS011;45776;40.400;17.260;2023-02-04T07:07:53;5.22;;;2.30;;
52946;SDS011;45776;40.400;17.260;2023-02-04T07:10:19;3.50;;;2.25;;
52946;SDS011;45776;40.400;17.260;2023-02-04T07:12:45;4.90;;;2.40;;
52946;SDS011;45776;40.400;17.260;2023-02-04T07:15:11;5.18;;;2.47;;
52946;SDS011;45776;40.400;17.260;2023-02-04T07:17:36;9.63;;;2.70;;
52946;SDS011;45776;40.400;17.260;2023-02-04T07:20:02;5.35;;;3.10;;
52946;SDS011;45776;40.400;17.260;2023-02-04T07:22:28;5.35;;;3.15;;
52946;SDS011;45776;40.400;17.260;2023-02-04T07:24:53;9.90;;;3.60;;
52946;SDS011;45776;40.400;17.260;2023-02-04T07:27:18;8.20;;;3.80;;
52946;SDS011;45776;40.400;17.260;2023-02-04T07:29:44;8.13;;;2.60;;
52946;SDS011;45776;40.400;17.260;2023-02-04T07:32:09;7.38;;;2.78;;
52946;SDS011;45776;40.400;17.260;2023-02-04T07:34:35;7.32;;;3.72;;
52946;SDS011;45776;40.400;17.260;2023-02-04T07:37:00;5.97;;;3.22;;
52946;SDS011;45776;40.400;17.260;2023-02-04T07:39:26;6.50;;;3.92;;
52946;SDS011;45776;40.400;17.260;2023-02-04T07:41:51;8.15;;;4.30;;
52946;SDS011;45776;40.400;17.260;2023-02-04T07:44:17;8.95;;;4.38;;
52946;SDS011;45776;40.400;17.260;2023-02-04T07:46:42;9.90;;;4.75;;
52946;SDS011;45776;40.400;17.260;2023-02-04T07:49:07;7.22;;;4.50;;
52946;SDS011;45776;40.400;17.260;2023-02-04T07:51:33;5.50;;;3.10;;
52946;SDS011;45776;40.400;17.260;2023-02-04T07:53:59;6.10;;;2.85;;
52946;SDS011;45776;40.400;17.260;2023-02-04T07:56:25;6.57;;;3.35;;
52946;SDS011;45776;40.400;17.260;2023-02-04T07:58:50;11.70;;;3.97;;
52946;SDS011;45776;40.400;17.260;2023-02-04T08:01:16;15.32;;;5.13;;
52946;SDS011;45776;40.400;17.260;2023-02-04T08:03:41;12.30;;;5.10;;
52946;SDS011;45776;40.400;17.260;2023-02-04T08:06:07;14.20;;;4.97;;
52946;SDS011;45776;40.400;17.260;2023-02-04T08:08:33;7.72;;;4.50;;
52946;SDS011;45776;40.400;17.260;2023-02-04T08:10:58;8.88;;;3.65;;
52946;SDS011;45776;40.400;17.260;2023-02-04T08:13:24;10.15;;;3.78;;
52946;SDS011;45776;40.400;17.260;2023-02-04T08:15:49;5.82;;;2.72;;
52946;SDS011;45776;40.400;17.260;2023-02-04T08:18:15;5.93;;;2.67;;
52946;SDS011;45776;40.400;17.260;2023-02-04T08:20:41;7.00;;;2.90;;
52946;SDS011;45776;40.400;17.260;2023-02-04T08:23:07;6.63;;;2.35;;
52946;SDS011;45776;40.400;17.260;2023-02-04T08:25:32;5.47;;;2.30;;
52946;SDS011;45776;40.400;17.260;2023-02-04T08:27:58;4.93;;;2.20;;
52946;SDS011;45776;40.400;17.260;2023-02-04T08:30:23;4.63;;;2.10;;
52946;SDS011;45776;40.400;17.260;2023-02-04T08:32:49;4.75;;;2.00;;
52946;SDS011;45776;40.400;17.260;2023-02-04T08:35:14;6.05;;;2.05;;
52946;SDS011;45776;40.400;17.260;2023-02-04T08:37:40;5.45;;;2.40;;
52946;SDS011;45776;40.400;17.260;2023-02-04T08:40:06;6.72;;;2.53;;
52946;SDS011;45776;40.400;17.260;2023-02-04T08:42:31;5.47;;;2.38;;
52946;SDS011;45776;40.400;17.260;2023-02-04T08:44:58;4.13;;;2.22;;
52946;SDS011;45776;40.400;17.260;2023-02-04T08:47:24;5.90;;;2.60;;
52946;SDS011;45776;40.400;17.260;2023-02-04T08:49:50;6.00;;;2.75;;
52946;SDS011;45776;40.400;17.260;2023-02-04T08:52:15;3.85;;;2.30;;
52946;SDS011;45776;40.400;17.260;2023-02-04T08:54:41;4.05;;;2.13;;
52946;SDS011;45776;40.400;17.260;2023-02-04T08:57:06;3.08;;;2.00;;
52946;SDS011;45776;40.400;17.260;2023-02-04T08:59:32;5.38;;;2.25;;
52946;SDS011;45776;40.400;17.260;2023-02-04T09:01:57;5.65;;;2.13;;
52946;SDS011;45776;40.400;17.260;2023-02-04T09:04:23;5.75;;;2.00;;
52946;SDS011;45776;40.400;17.260;2023-02-04T09:06:49;5.93;;;2.08;;
52946;SDS011;45776;40.400;17.260;2023-02-04T09:09:15;4.20;;;1.92;;
52946;SDS011;45776;40.400;17.260;2023-02-04T09:11:41;4.15;;;1.90;;
52946;SDS011;45776;40.400;17.260;2023-02-04T09:14:06;4.05;;;1.85;;
52946;SDS011;45776;40.400;17.260;2023-02-04T09:16:32;6.90;;;2.17;;
52946;SDS011;45776;40.400;17.260;2023-02-04T09:18:58;7.05;;;2.05;;
52946;SDS011;45776;40.400;17.260;2023-02-04T09:21:24;3.55;;;1.88;;
52946;SDS011;45776;40.400;17.260;2023-02-04T09:23:50;4.20;;;1.92;;
52946;SDS011;45776;40.400;17.260;2023-02-04T09:26:16;5.68;;;1.92;;
52946;SDS011;45776;40.400;17.260;2023-02-04T09:28:41;5.80;;;1.88;;
52946;SDS011;45776;40.400;17.260;2023-02-04T09:31:07;3.97;;;1.85;;
52946;SDS011;45776;40.400;17.260;2023-02-04T09:33:33;5.93;;;2.08;;
52946;SDS011;45776;40.400;17.260;2023-02-04T09:35:59;6.03;;;2.20;;
52946;SDS011;45776;40.400;17.260;2023-02-04T09:38:24;5.03;;;1.90;;
52946;SDS011;45776;40.400;17.260;2023-02-04T09:40:52;9.13;;;2.05;;
52946;SDS011;45776;40.400;17.260;2023-02-04T09:43:23;5.97;;;1.85;;
52946;SDS011;45776;40.400;17.260;2023-02-04T09:45:52;3.80;;;1.75;;
52946;SDS011;45776;40.400;17.260;2023-02-04T09:48:18;4.90;;;2.33;;
52946;SDS011;45776;40.400;17.260;2023-02-04T09:50:46;4.40;;;2.03;;
52946;SDS011;45776;40.400;17.260;2023-02-04T09:53:13;3.30;;;1.65;;
52946;SDS011;45776;40.400;17.260;2023-02-04T09:55:44;3.65;;;1.50;;
52946;SDS011;45776;40.400;17.260;2023-02-04T09:58:14;4.60;;;1.40;;
52946;SDS011;45776;40.400;17.260;2023-02-04T10:00:42;4.35;;;1.80;;
52946;SDS011;45776;40.400;17.260;2023-02-04T10:03:15;6.47;;;2.20;;
52946;SDS011;45776;40.400;17.260;2023-02-04T10:05:44;4.75;;;1.60;;
52946;SDS011;45776;40.400;17.260;2023-02-04T10:08:14;3.95;;;1.90;;
52946;SDS011;45776;40.400;17.260;2023-02-04T10:10:42;4.50;;;2.00;;
52946;SDS011;45776;40.400;17.260;2023-02-04T10:13:13;7.47;;;2.08;;
52946;SDS011;45776;40.400;17.260;2023-02-04T10:15:55;4.95;;;1.80;;
52946;SDS011;45776;40.400;17.260;2023-02-04T10:18:29;4.00;;;1.90;;
52946;SDS011;45776;40.400;17.260;2023-02-04T10:21:40;4.45;;;2.35;;
52946;SDS011;45776;40.400;17.260;2023-02-04T10:23:56;3.80;;;2.15;;
52946;SDS011;45776;40.400;17.260;2023-02-04T10:26:24;7.28;;;1.70;;
52946;SDS011;45776;40.400;17.260;2023-02-04T10:31:34;4.57;;;1.92;;
52946;SDS011;45776;40.400;17.260;2023-02-04T10:36:48;5.00;;;2.30;;
52946;SDS011;45776;40.400;17.260;2023-02-04T10:39:18;7.15;;;1.80;;
52946;SDS011;45776;40.400;17.260;2023-02-04T10:41:49;7.53;;;2.78;;
52946;SDS011;45776;40.400;17.260;2023-02-04T10:44:17;5.60;;;2.00;;
52946;SDS011;45776;40.400;17.260;2023-02-04T10:46:45;6.03;;;2.30;;
52946;SDS011;45776;40.400;17.260;2023-02-04T10:49:15;7.18;;;2.53;;
52946;SDS011;45776;40.400;17.260;2023-02-04T10:51:43;3.08;;;2.15;;
52946;SDS011;45776;40.400;17.260;2023-02-04T10:54:09;4.32;;;2.45;;
52946;SDS011;45776;40.400;17.260;2023-02-04T10:59:50;8.95;;;2.30;;
52946;SDS011;45776;40.400;17.260;2023-02-04T11:05:01;5.00;;;2.55;;
52946;SDS011;45776;40.400;17.260;2023-02-04T11:07:30;11.02;;;4.43;;
52946;SDS011;45776;40.400;17.260;2023-02-04T11:09:56;10.57;;;4.07;;
52946;SDS011;45776;40.400;17.260;2023-02-04T11:12:22;8.20;;;3.40;;
52946;SDS011;45776;40.400;17.260;2023-02-04T11:15:00;10.77;;;4.20;;
52946;SDS011;45776;40.400;17.260;2023-02-04T11:17:32;7.68;;;3.75;;
52946;SDS011;45776;40.400;17.260;2023-02-04T11:19:59;7.82;;;3.95;;
52946;SDS011;45776;40.400;17.260;2023-02-04T11:22:44;6.35;;;3.50;;
52946;SDS011;45776;40.400;17.260;2023-02-04T11:25:31;7.72;;;3.70;;
52946;SDS011;45776;40.400;17.260;2023-02-04T11:28:12;7.30;;;4.32;;
52946;SDS011;45776;40.400;17.260;2023-02-04T11:30:38;9.73;;;4.80;;
52946;SDS011;45776;40.400;17.260;2023-02-04T11:33:04;12.68;;;5.18;;
52946;SDS011;45776;40.400;17.260;2023-02-04T11:35:55;12.40;;;5.30;;
52946;SDS011;45776;40.400;17.260;2023-02-04T11:38:25;8.60;;;4.82;;
52946;SDS011;45776;40.400;17.260;2023-02-04T11:40:56;11.85;;;5.10;;
52946;SDS011;45776;40.400;17.260;2023-02-04T11:43:22;7.82;;;4.00;;
52946;SDS011;45776;40.400;17.260;2023-02-04T11:45:48;7.88;;;4.20;;
52946;SDS011;45776;40.400;17.260;2023-02-04T11:48:25;10.88;;;4.32;;
52946;SDS011;45776;40.400;17.260;2023-02-04T11:50:58;9.02;;;4.18;;
52946;SDS011;45776;40.400;17.260;2023-02-04T11:53:30;12.10;;;4.43;;
52946;SDS011;45776;40.400;17.260;2023-02-04T11:55:56;12.48;;;4.88;;
52946;SDS011;45776;40.400;17.260;2023-02-04T11:58:23;16.05;;;5.28;;
52946;SDS011;45776;40.400;17.260;2023-02-04T12:00:50;8.60;;;4.00;;
52946;SDS011;45776;40.400;17.260;2023-02-04T12:03:44;10.38;;;3.75;;
52946;SDS011;45776;40.400;17.260;2023-02-04T12:06:19;7.38;;;3.85;;
52946;SDS011;45776;40.400;17.260;2023-02-04T12:08:45;9.45;;;4.25;;
52946;SDS011;45776;40.400;17.260;2023-02-04T12:11:21;10.55;;;4.28;;
52946;SDS011;45776;40.400;17.260;2023-02-04T12:13:54;13.70;;;4.97;;
52946;SDS011;45776;40.400;17.260;2023-02-04T12:16:21;10.18;;;4.78;;
52946;SDS011;45776;40.400;17.260;2023-02-04T12:18:47;12.05;;;4.93;;
52946;SDS011;45776;40.400;17.260;2023-02-04T12:21:13;10.43;;;4.95;;
52946;SDS011;45776;40.400;17.260;2023-02-04T12:23:39;8.80;;;4.82;;
52946;SDS011;45776;40.400;17.260;2023-02-04T12:26:06;10.48;;;5.30;;
52946;SDS011;45776;40.400;17.260;2023-02-04T12:28:32;10.73;;;5.22;;
52946;SDS011;45776;40.400;17.260;2023-02-04T12:30:58;10.57;;;4.03;;
52946;SDS011;45776;40.400;17.260;2023-02-04T12:33:23;8.43;;;4.30;;
52946;SDS011;45776;40.400;17.260;2023-02-04T12:35:49;10.32;;;4.10;;
52946;SDS011;45776;40.400;17.260;2023-02-04T12:38:15;8.18;;;4.88;;
52946;SDS011;45776;40.400;17.260;2023-02-04T12:40:40;9.63;;;4.72;;
52946;SDS011;45776;40.400;17.260;2023-02-04T12:43:06;9.85;;;4.82;;
52946;SDS011;45776;40.400;17.260;2023-02-04T12:45:32;10.82;;;5.05;;
52946;SDS011;45776;40.400;17.260;2023-02-04T12:47:57;11.23;;;5.30;;
52946;SDS011;45776;40.400;17.260;2023-02-04T12:50:23;13.82;;;5.95;;
52946;SDS011;45776;40.400;17.260;2023-02-04T12:52:50;14.57;;;4.78;;
52946;SDS011;45776;40.400;17.260;2023-02-04T12:55:20;11.73;;;4.53;;
52946;SDS011;45776;40.400;17.260;2023-02-04T12:57:47;15.27;;;5.72;;
52946;SDS011;45776;40.400;17.260;2023-02-04T13:00:14;9.70;;;4.80;;
52946;SDS011;45776;40.400;17.260;2023-02-04T13:02:41;10.90;;;6.05;;
52946;SDS011;45776;40.400;17.260;2023-02-04T13:05:08;15.77;;;6.03;;
52946;SDS011;45776;40.400;17.260;2023-02-04T13:07:34;13.10;;;6.18;;
52946;SDS011;45776;40.400;17.260;2023-02-04T13:10:00;13.55;;;5.80;;
52946;SDS011;45776;40.400;17.260;2023-02-04T13:12:26;18.08;;;6.53;;
52946;SDS011;45776;40.400;17.260;2023-02-04T13:14:51;13.32;;;6.88;;
52946;SDS011;45776;40.400;17.260;2023-02-04T13:17:17;12.82;;;6.55;;
52946;SDS011;45776;40.400;17.260;2023-02-04T13:19:42;14.23;;;6.28;;
52946;SDS011;45776;40.400;17.260;2023-02-04T13:22:08;14.45;;;6.38;;
52946;SDS011;45776;40.400;17.260;2023-02-04T13:24:33;14.95;;;6.57;;
52946;SDS011;45776;40.400;17.260;2023-02-04T13:26:59;14.75;;;6.93;;
52946;SDS011;45776;40.400;17.260;2023-02-04T13:29:25;12.63;;;6.60;;
52946;SDS011;45776;40.400;17.260;2023-02-04T13:31:50;18.45;;;7.57;;
52946;SDS011;45776;40.400;17.260;2023-02-04T13:34:16;15.82;;;7.35;;
52946;SDS011;45776;40.400;17.260;2023-02-04T13:36:41;16.00;;;6.10;;
52946;SDS011;45776;40.400;17.260;2023-02-04T13:39:07;14.43;;;4.85;;
52946;SDS011;45776;40.400;17.260;2023-02-04T13:41:33;9.70;;;5.70;;
52946;SDS011;45776;40.400;17.260;2023-02-04T13:43:59;19.02;;;7.82;;
52946;SDS011;45776;40.400;17.260;2023-02-04T13:46:24;19.10;;;7.93;;
52946;SDS011;45776;40.400;17.260;2023-02-04T13:48:50;21.42;;;8.07;;
52946;SDS011;45776;40.400;17.260;2023-02-04T13:51:15;11.75;;;5.85;;
52946;SDS011;45776;40.400;17.260;2023-02-04T13:53:41;12.35;;;4.72;;
52946;SDS011;45776;40.400;17.260;2023-02-04T13:56:07;14.77;;;4.80;;
52946;SDS011;45776;40.400;17.260;2023-02-04T13:58:32;10.10;;;4.00;;
52946;SDS011;45776;40.400;17.260;2023-02-04T14:00:58;10.55;;;4.55;;
52946;SDS011;45776;40.400;17.260;2023-02-04T14:03:24;11.75;;;3.83;;
52946;SDS011;45776;40.400;17.260;2023-02-04T14:05:50;8.13;;;4.40;;
52946;SDS011;45776;40.400;17.260;2023-02-04T14:08:17;12.45;;;4.35;;
52946;SDS011;45776;40.400;17.260;2023-02-04T14:10:42;7.38;;;4.05;;
52946;SDS011;45776;40.400;17.260;2023-02-04T14:13:08;8.80;;;3.85;;
52946;SDS011;45776;40.400;17.260;2023-02-04T14:15:34;6.25;;;3.72;;
52946;SDS011;45776;40.400;17.260;2023-02-04T14:20:17;10.75;;;4.65;;
52946;SDS011;45776;40.400;17.260;2023-02-04T14:22:42;13.43;;;4.43;;
52946;SDS011;45776;40.400;17.260;2023-02-04T14:25:08;9.63;;;4.13;;
52946;SDS011;45776;40.400;17.260;2023-02-04T15:01:46;19.35;;;4.93;;
52946;SDS011;45776;40.400;17.260;2023-02-04T15:04:12;4.82;;;1.80;;
52946;SDS011;45776;40.400;17.260;2023-02-04T15:06:37;5.25;;;1.77;;
52946;SDS011;45776;40.400;17.260;2023-02-04T15:09:03;5.22;;;1.77;;
52946;SDS011;45776;40.400;17.260;2023-02-04T15:11:28;4.53;;;1.77;;
52946;SDS011;45776;40.400;17.260;2023-02-04T15:13:55;4.00;;;1.48;;
52946;SDS011;45776;40.400;17.260;2023-02-04T15:16:21;5.40;;;1.80;;
52946;SDS011;45776;40.400;17.260;2023-02-04T15:18:46;7.78;;;2.58;;
52946;SDS011;45776;40.400;17.260;2023-02-04T15:21:11;5.03;;;1.80;;